sensor_id;sensor_type;location;lat;lon;timestamp;P1;durP1;ratioP1;P2;durP2;ratioP2
26718;SDS011;14326;50.794;6.060;2023-03-04T00:00:43;67.57;;;24.92;;
26718;SDS011;14326;50.794;6.060;2023-03-04T00:03:11;82.38;;;30.20;;
26718;SDS011;14326;50.794;6.060;2023-03-04T00:05:48;78.68;;;27.98;;
26718;SDS011;14326;50.794;6.060;2023-03-04T00:08:16;85.57;;;30.35;;
26718;SDS011;14326;50.794;6.060;2023-03-04T00:10:43;78.35;;;29.05;;
26718;SDS011;14326;50.794;6.060;2023-03-04T00:13:10;85.88;;;28.73;;
26718;SDS011;14326;50.794;6.060;2023-03-04T00:15:36;88.57;;;29.13;;
26718;SDS011;14326;50.794;6.060;2023-03-04T00:18:03;88.00;;;29.48;;
26718;SDS011;14326;50.794;6.060;2023-03-04T00:23:36;78.93;;;26.88;;
26718;SDS011;14326;50.794;6.060;2023-03-04T00:26:39;75.20;;;27.15;;
26718;SDS011;14326;50.794;6.060;2023-03-04T00:29:11;80.63;;;29.05;;
26718;SDS011;14326;50.794;6.060;2023-03-04T00:32:02;84.90;;;30.10;;
26718;SDS011;14326;50.794;6.060;2023-03-04T00:35:05;77.35;;;28.58;;
26718;SDS011;14326;50.794;6.060;2023-03-04T00:37:47;80.88;;;27.75;;
26718;SDS011;14326;50.794;6.060;2023-03-04T00:40:15;83.75;;;30.10;;
26718;SDS011;14326;50.794;6.060;2023-03-04T00:42:47;88.32;;;30.65;;
26718;SDS011;14326;50.794;6.060;2023-03-04T00:45:45;79.13;;;28.58;;
26718;SDS011;14326;50.794;6.060;2023-03-04T00:48:39;81.65;;;30.88;;
26718;SDS011;14326;50.794;6.060;2023-03-04T00:51:14;74.20;;;27.45;;
26718;SDS011;14326;50.794;6.060;2023-03-04T00:53:55;79.63;;;29.58;;
26718;SDS011;14326;50.794;6.060;2023-03-04T00:56:23;74.55;;;28.00;;
26718;SDS011;14326;50.794;6.060;2023-03-04T00:58:50;81.93;;;27.13;;
26718;SDS011;14326;50.794;6.060;2023-03-04T01:01:21;79.75;;;29.48;;
26718;SDS011;14326;50.794;6.060;2023-03-04T01:04:14;77.88;;;29.55;;
26718;SDS011;14326;50.794;6.060;2023-03-04T01:06:55;82.63;;;28.52;;
26718;SDS011;14326;50.794;6.060;2023-03-04T01:09:40;76.82;;;27.10;;
26718;SDS011;14326;50.794;6.060;2023-03-04T01:12:08;70.68;;;28.20;;
26718;SDS011;14326;50.794;6.060;2023-03-04T01:14:35;73.45;;;25.63;;
26718;SDS011;14326;50.794;6.060;2023-03-04T01:17:01;82.53;;;26.30;;
26718;SDS011;14326;50.794;6.060;2023-03-04T01:19:30;74.18;;;27.00;;
26718;SDS011;14326;50.794;6.060;2023-03-04T01:22:22;75.53;;;25.65;;
26718;SDS011;14326;50.794;6.060;2023-03-04T01:25:14;71.90;;;26.92;;
26718;SDS011;14326;50.794;6.060;2023-03-04T01:27:42;67.40;;;24.48;;
26718;SDS011;14326;50.794;6.060;2023-03-04T01:30:09;82.40;;;25.80;;
26718;SDS011;14326;50.794;6.060;2023-03-04T01:32:37;70.20;;;25.17;;
26718;SDS011;14326;50.794;6.060;2023-03-04T01:35:04;66.07;;;24.98;;
26718;SDS011;14326;50.794;6.060;2023-03-04T01:37:31;69.95;;;26.40;;
26718;SDS011;14326;50.794;6.060;2023-03-04T01:39:57;72.60;;;26.23;;
26718;SDS011;14326;50.794;6.060;2023-03-04T01:42:25;74.25;;;25.75;;
26718;SDS011;14326;50.794;6.060;2023-03-04T01:44:56;71.57;;;25.25;;
26718;SDS011;14326;50.794;6.060;2023-03-04T01:50:14;64.80;;;23.70;;
26718;SDS011;14326;50.794;6.060;2023-03-04T01:52:44;65.30;;;24.50;;
26718;SDS011;14326;50.794;6.060;2023-03-04T01:55:13;65.68;;;25.27;;
26718;SDS011;14326;50.794;6.060;2023-03-04T01:57:42;58.97;;;21.55;;
26718;SDS011;14326;50.794;6.060;2023-03-04T02:03:05;68.60;;;24.17;;
26718;SDS011;14326;50.794;6.060;2023-03-04T02:05:43;69.65;;;23.92;;
26718;SDS011;14326;50.794;6.060;2023-03-04T02:08:34;60.15;;;21.02;;
26718;SDS011;14326;50.794;6.060;2023-03-04T02:11:01;68.55;;;23.75;;
26718;SDS011;14326;50.794;6.060;2023-03-04T02:13:30;62.70;;;22.20;;
26718;SDS011;14326;50.794;6.060;2023-03-04T02:16:09;63.85;;;23.08;;
26718;SDS011;14326;50.794;6.060;2023-03-04T02:18:36;59.55;;;22.33;;
26718;SDS011;14326;50.794;6.060;2023-03-04T02:21:54;56.30;;;20.17;;
26718;SDS011;14326;50.794;6.060;2023-03-04T02:25:02;57.80;;;21.08;;
26718;SDS011;14326;50.794;6.060;2023-03-04T02:27:57;56.63;;;21.73;;
26718;SDS011;14326;50.794;6.060;2023-03-04T02:30:29;52.33;;;19.20;;
26718;SDS011;14326;50.794;6.060;2023-03-04T02:32:56;48.70;;;17.13;;
26718;SDS011;14326;50.794;6.060;2023-03-04T02:35:23;50.58;;;18.15;;
26718;SDS011;14326;50.794;6.060;2023-03-04T02:37:50;47.78;;;16.05;;
26718;SDS011;14326;50.794;6.060;2023-03-04T02:40:18;55.67;;;17.92;;
26718;SDS011;14326;50.794;6.060;2023-03-04T02:42:48;54.75;;;18.25;;
26718;SDS011;14326;50.794;6.060;2023-03-04T02:45:39;47.00;;;18.00;;
26718;SDS011;14326;50.794;6.060;2023-03-04T02:48:09;54.90;;;17.65;;
26718;SDS011;14326;50.794;6.060;2023-03-04T02:50:38;53.22;;;17.70;;
26718;SDS011;14326;50.794;6.060;2023-03-04T02:55:56;42.22;;;14.65;;
26718;SDS011;14326;50.794;6.060;2023-03-04T02:58:23;50.30;;;15.38;;
26718;SDS011;14326;50.794;6.060;2023-03-04T03:00:51;44.10;;;16.60;;
26718;SDS011;14326;50.794;6.060;2023-03-04T03:03:17;47.33;;;16.95;;
26718;SDS011;14326;50.794;6.060;2023-03-04T03:05:44;53.78;;;17.80;;
26718;SDS011;14326;50.794;6.060;2023-03-04T03:08:11;53.75;;;16.63;;
26718;SDS011;14326;50.794;6.060;2023-03-04T03:10:38;50.35;;;16.83;;
26718;SDS011;14326;50.794;6.060;2023-03-04T03:13:04;48.08;;;16.60;;
26718;SDS011;14326;50.794;6.060;2023-03-04T03:18:25;40.53;;;15.40;;
26718;SDS011;14326;50.794;6.060;2023-03-04T03:20:52;43.75;;;16.42;;
26718;SDS011;14326;50.794;6.060;2023-03-04T03:23:21;50.90;;;17.15;;
26718;SDS011;14326;50.794;6.060;2023-03-04T03:26:12;43.67;;;15.40;;
26718;SDS011;14326;50.794;6.060;2023-03-04T03:28:58;42.15;;;15.10;;
26718;SDS011;14326;50.794;6.060;2023-03-04T03:31:26;48.30;;;15.77;;
26718;SDS011;14326;50.794;6.060;2023-03-04T03:33:52;43.15;;;15.55;;
26718;SDS011;14326;50.794;6.060;2023-03-04T03:36:19;43.85;;;15.50;;
26718;SDS011;14326;50.794;6.060;2023-03-04T03:38:46;41.47;;;13.90;;
26718;SDS011;14326;50.794;6.060;2023-03-04T03:41:29;44.50;;;15.68;;
26718;SDS011;14326;50.794;6.060;2023-03-04T03:44:14;39.28;;;13.48;;
26718;SDS011;14326;50.794;6.060;2023-03-04T03:46:42;43.83;;;13.07;;
26718;SDS011;14326;50.794;6.060;2023-03-04T03:49:09;40.95;;;14.63;;
26718;SDS011;14326;50.794;6.060;2023-03-04T03:51:38;35.33;;;12.68;;
26718;SDS011;14326;50.794;6.060;2023-03-04T03:54:26;37.85;;;13.07;;
26718;SDS011;14326;50.794;6.060;2023-03-04T03:56:53;42.05;;;13.45;;
26718;SDS011;14326;50.794;6.060;2023-03-04T03:59:19;41.17;;;13.35;;
26718;SDS011;14326;50.794;6.060;2023-03-04T04:01:49;40.33;;;13.80;;
26718;SDS011;14326;50.794;6.060;2023-03-04T04:04:16;36.97;;;12.45;;
26718;SDS011;14326;50.794;6.060;2023-03-04T04:06:42;33.40;;;13.07;;
26718;SDS011;14326;50.794;6.060;2023-03-04T04:09:09;45.65;;;14.15;;
26718;SDS011;14326;50.794;6.060;2023-03-04T04:11:44;37.22;;;12.75;;
26718;SDS011;14326;50.794;6.060;2023-03-04T04:14:12;40.30;;;14.13;;
26718;SDS011;14326;50.794;6.060;2023-03-04T04:16:39;42.70;;;14.15;;
26718;SDS011;14326;50.794;6.060;2023-03-04T04:19:08;40.50;;;13.23;;
26718;SDS011;14326;50.794;6.060;2023-03-04T04:21:39;42.47;;;13.60;;
26718;SDS011;14326;50.794;6.060;2023-03-04T04:24:05;39.05;;;14.38;;
26718;SDS011;14326;50.794;6.060;2023-03-04T04:26:32;41.13;;;12.65;;
26718;SDS011;14326;50.794;6.060;2023-03-04T04:28:59;45.38;;;13.75;;
26718;SDS011;14326;50.794;6.060;2023-03-04T04:31:26;42.35;;;13.00;;
26718;SDS011;14326;50.794;6.060;2023-03-04T04:33:53;37.22;;;11.65;;
26718;SDS011;14326;50.794;6.060;2023-03-04T04:36:20;40.53;;;12.82;;
26718;SDS011;14326;50.794;6.060;2023-03-04T04:38:47;37.78;;;12.27;;
26718;SDS011;14326;50.794;6.060;2023-03-04T04:41:16;41.35;;;13.82;;
26718;SDS011;14326;50.794;6.060;2023-03-04T04:43:45;44.28;;;14.30;;
26718;SDS011;14326;50.794;6.060;2023-03-04T04:46:12;51.50;;;13.82;;
26718;SDS011;14326;50.794;6.060;2023-03-04T04:48:39;51.15;;;13.18;;
26718;SDS011;14326;50.794;6.060;2023-03-04T04:51:05;47.60;;;15.07;;
26718;SDS011;14326;50.794;6.060;2023-03-04T04:53:45;43.78;;;12.95;;
26718;SDS011;14326;50.794;6.060;2023-03-04T04:56:20;45.60;;;13.32;;
26718;SDS011;14326;50.794;6.060;2023-03-04T05:01:40;40.33;;;13.43;;
26718;SDS011;14326;50.794;6.060;2023-03-04T05:04:07;40.88;;;14.27;;
26718;SDS011;14326;50.794;6.060;2023-03-04T05:06:34;38.10;;;12.00;;
26718;SDS011;14326;50.794;6.060;2023-03-04T05:09:02;40.53;;;12.68;;
26718;SDS011;14326;50.794;6.060;2023-03-04T05:11:29;41.85;;;11.55;;
26718;SDS011;14326;50.794;6.060;2023-03-04T05:13:55;39.83;;;12.10;;
26718;SDS011;14326;50.794;6.060;2023-03-04T05:16:22;37.65;;;12.60;;
26718;SDS011;14326;50.794;6.060;2023-03-04T05:18:54;40.22;;;11.60;;
26718;SDS011;14326;50.794;6.060;2023-03-04T05:21:30;38.33;;;10.98;;
26718;SDS011;14326;50.794;6.060;2023-03-04T05:23:57;35.65;;;10.93;;
26718;SDS011;14326;50.794;6.060;2023-03-04T05:26:25;43.00;;;11.10;;
26718;SDS011;14326;50.794;6.060;2023-03-04T05:28:51;36.03;;;11.20;;
26718;SDS011;14326;50.794;6.060;2023-03-04T05:31:18;33.63;;;12.20;;
26718;SDS011;14326;50.794;6.060;2023-03-04T05:33:45;37.92;;;11.38;;
26718;SDS011;14326;50.794;6.060;2023-03-04T05:36:11;34.20;;;10.38;;
26718;SDS011;14326;50.794;6.060;2023-03-04T05:38:38;36.38;;;10.73;;
26718;SDS011;14326;50.794;6.060;2023-03-04T05:41:05;33.95;;;9.65;;
26718;SDS011;14326;50.794;6.060;2023-03-04T05:43:34;37.08;;;11.40;;
26718;SDS011;14326;50.794;6.060;2023-03-04T05:46:02;28.65;;;9.82;;
26718;SDS011;14326;50.794;6.060;2023-03-04T05:48:29;45.50;;;13.23;;
26718;SDS011;14326;50.794;6.060;2023-03-04T05:50:56;44.33;;;13.52;;
26718;SDS011;14326;50.794;6.060;2023-03-04T05:53:24;49.63;;;13.65;;
26718;SDS011;14326;50.794;6.060;2023-03-04T05:55:51;46.90;;;13.38;;
26718;SDS011;14326;50.794;6.060;2023-03-04T05:58:18;43.33;;;13.88;;
26718;SDS011;14326;50.794;6.060;2023-03-04T06:00:47;43.28;;;12.05;;
26718;SDS011;14326;50.794;6.060;2023-03-04T06:03:14;45.30;;;14.10;;
26718;SDS011;14326;50.794;6.060;2023-03-04T06:05:42;39.33;;;12.30;;
26718;SDS011;14326;50.794;6.060;2023-03-04T06:08:09;43.78;;;12.25;;
26718;SDS011;14326;50.794;6.060;2023-03-04T06:10:36;40.42;;;12.38;;
26718;SDS011;14326;50.794;6.060;2023-03-04T06:13:03;37.08;;;11.77;;
26718;SDS011;14326;50.794;6.060;2023-03-04T06:15:30;32.60;;;10.68;;
26718;SDS011;14326;50.794;6.060;2023-03-04T06:18:13;34.92;;;11.25;;
26718;SDS011;14326;50.794;6.060;2023-03-04T06:20:39;34.78;;;10.23;;
26718;SDS011;14326;50.794;6.060;2023-03-04T06:23:09;37.42;;;10.75;;
26718;SDS011;14326;50.794;6.060;2023-03-04T06:25:36;37.10;;;10.57;;
26718;SDS011;14326;50.794;6.060;2023-03-04T06:28:04;33.08;;;10.30;;
26718;SDS011;14326;50.794;6.060;2023-03-04T06:30:30;37.05;;;10.50;;
26718;SDS011;14326;50.794;6.060;2023-03-04T06:32:57;36.15;;;10.05;;
26718;SDS011;14326;50.794;6.060;2023-03-04T06:35:25;36.05;;;10.07;;
26718;SDS011;14326;50.794;6.060;2023-03-04T06:37:51;30.85;;;9.38;;
26718;SDS011;14326;50.794;6.060;2023-03-04T06:40:18;30.15;;;9.32;;
26718;SDS011;14326;50.794;6.060;2023-03-04T06:42:45;33.33;;;10.52;;
26718;SDS011;14326;50.794;6.060;2023-03-04T06:45:16;35.38;;;9.40;;
26718;SDS011;14326;50.794;6.060;2023-03-04T06:47:43;32.42;;;9.55;;
26718;SDS011;14326;50.794;6.060;2023-03-04T06:50:10;29.80;;;9.35;;
26718;SDS011;14326;50.794;6.060;2023-03-04T06:52:40;30.85;;;9.20;;
26718;SDS011;14326;50.794;6.060;2023-03-04T06:55:07;33.63;;;10.48;;
26718;SDS011;14326;50.794;6.060;2023-03-04T06:57:34;38.03;;;10.98;;
26718;SDS011;14326;50.794;6.060;2023-03-04T07:00:01;36.70;;;11.05;;
26718;SDS011;14326;50.794;6.060;2023-03-04T07:02:28;33.72;;;11.10;;
26718;SDS011;14326;50.794;6.060;2023-03-04T07:04:54;42.00;;;10.80;;
26718;SDS011;14326;50.794;6.060;2023-03-04T07:07:21;33.08;;;9.93;;
26718;SDS011;14326;50.794;6.060;2023-03-04T07:09:51;33.28;;;9.57;;
26718;SDS011;14326;50.794;6.060;2023-03-04T07:12:18;34.40;;;9.27;;
26718;SDS011;14326;50.794;6.060;2023-03-04T07:14:44;29.85;;;8.02;;
26718;SDS011;14326;50.794;6.060;2023-03-04T07:17:11;35.60;;;8.82;;
26718;SDS011;14326;50.794;6.060;2023-03-04T07:19:38;27.88;;;7.72;;
26718;SDS011;14326;50.794;6.060;2023-03-04T07:22:05;25.27;;;7.60;;
26718;SDS011;14326;50.794;6.060;2023-03-04T07:24:32;29.48;;;7.82;;
26718;SDS011;14326;50.794;6.060;2023-03-04T07:27:00;29.55;;;9.27;;
26718;SDS011;14326;50.794;6.060;2023-03-04T07:29:27;26.50;;;8.45;;
26718;SDS011;14326;50.794;6.060;2023-03-04T07:31:54;32.97;;;8.63;;
26718;SDS011;14326;50.794;6.060;2023-03-04T07:34:20;26.33;;;7.60;;
26718;SDS011;14326;50.794;6.060;2023-03-04T07:36:47;24.25;;;7.03;;
26718;SDS011;14326;50.794;6.060;2023-03-04T07:39:14;26.45;;;6.78;;
26718;SDS011;14326;50.794;6.060;2023-03-04T07:41:40;29.55;;;6.43;;
26718;SDS011;14326;50.794;6.060;2023-03-04T07:44:11;27.92;;;8.38;;
26718;SDS011;14326;50.794;6.060;2023-03-04T07:46:38;22.95;;;6.22;;
26718;SDS011;14326;50.794;6.060;2023-03-04T07:49:06;27.73;;;6.50;;
26718;SDS011;14326;50.794;6.060;2023-03-04T07:51:32;24.67;;;6.20;;
26718;SDS011;14326;50.794;6.060;2023-03-04T07:54:02;34.70;;;6.88;;
26718;SDS011;14326;50.794;6.060;2023-03-04T07:56:29;23.05;;;5.50;;
26718;SDS011;14326;50.794;6.060;2023-03-04T07:58:57;21.02;;;6.30;;
26718;SDS011;14326;50.794;6.060;2023-03-04T08:01:27;25.65;;;6.18;;
26718;SDS011;14326;50.794;6.060;2023-03-04T08:03:55;30.58;;;6.43;;
26718;SDS011;14326;50.794;6.060;2023-03-04T08:06:22;31.02;;;8.90;;
26718;SDS011;14326;50.794;6.060;2023-03-04T08:08:54;21.98;;;6.35;;
26718;SDS011;14326;50.794;6.060;2023-03-04T08:11:21;19.70;;;5.05;;
26718;SDS011;14326;50.794;6.060;2023-03-04T08:13:48;20.92;;;5.60;;
26718;SDS011;14326;50.794;6.060;2023-03-04T08:16:18;25.35;;;5.20;;
26718;SDS011;14326;50.794;6.060;2023-03-04T08:18:47;22.10;;;4.97;;
26718;SDS011;14326;50.794;6.060;2023-03-04T08:21:16;20.73;;;4.15;;
26718;SDS011;14326;50.794;6.060;2023-03-04T08:23:44;29.67;;;6.32;;
26718;SDS011;14326;50.794;6.060;2023-03-04T08:26:13;23.20;;;5.38;;
26718;SDS011;14326;50.794;6.060;2023-03-04T08:28:41;22.00;;;5.82;;
26718;SDS011;14326;50.794;6.060;2023-03-04T08:31:09;29.52;;;5.50;;
26718;SDS011;14326;50.794;6.060;2023-03-04T08:33:37;20.98;;;5.53;;
26718;SDS011;14326;50.794;6.060;2023-03-04T08:36:06;23.25;;;6.22;;
26718;SDS011;14326;50.794;6.060;2023-03-04T08:38:33;29.15;;;6.68;;
26718;SDS011;14326;50.794;6.060;2023-03-04T08:41:00;26.48;;;7.20;;
26718;SDS011;14326;50.794;6.060;2023-03-04T08:43:33;24.92;;;6.10;;
26718;SDS011;14326;50.794;6.060;2023-03-04T08:46:00;23.75;;;5.60;;
26718;SDS011;14326;50.794;6.060;2023-03-04T08:48:27;23.65;;;5.50;;
26718;SDS011;14326;50.794;6.060;2023-03-04T08:50:54;25.80;;;5.40;;
26718;SDS011;14326;50.794;6.060;2023-03-04T08:53:22;19.27;;;4.10;;
26718;SDS011;14326;50.794;6.060;2023-03-04T08:55:49;22.92;;;4.15;;
26718;SDS011;14326;50.794;6.060;2023-03-04T08:58:17;22.67;;;3.88;;
26718;SDS011;14326;50.794;6.060;2023-03-04T09:00:44;18.65;;;3.50;;
26718;SDS011;14326;50.794;6.060;2023-03-04T09:03:14;15.80;;;3.22;;
26718;SDS011;14326;50.794;6.060;2023-03-04T09:05:43;13.57;;;2.90;;
26718;SDS011;14326;50.794;6.060;2023-03-04T09:08:11;11.68;;;2.22;;
26718;SDS011;14326;50.794;6.060;2023-03-04T09:10:40;17.95;;;2.90;;
26718;SDS011;14326;50.794;6.060;2023-03-04T09:13:06;12.98;;;2.95;;
26718;SDS011;14326;50.794;6.060;2023-03-04T09:15:35;16.88;;;2.90;;
26718;SDS011;14326;50.794;6.060;2023-03-04T09:18:03;16.33;;;2.80;;
26718;SDS011;14326;50.794;6.060;2023-03-04T09:20:31;11.70;;;2.28;;
26718;SDS011;14326;50.794;6.060;2023-03-04T09:22:57;12.10;;;2.90;;
26718;SDS011;14326;50.794;6.060;2023-03-04T09:25:24;19.08;;;4.00;;
26718;SDS011;14326;50.794;6.060;2023-03-04T09:27:52;14.18;;;3.20;;
26718;SDS011;14326;50.794;6.060;2023-03-04T09:30:19;7.88;;;2.13;;
26718;SDS011;14326;50.794;6.060;2023-03-04T09:32:46;17.80;;;2.55;;
26718;SDS011;14326;50.794;6.060;2023-03-04T09:35:13;14.32;;;2.40;;
26718;SDS011;14326;50.794;6.060;2023-03-04T09:37:40;12.60;;;3.08;;
26718;SDS011;14326;50.794;6.060;2023-03-04T09:40:07;14.88;;;2.90;;
26718;SDS011;14326;50.794;6.060;2023-03-04T09:42:41;24.75;;;2.95;;
26718;SDS011;14326;50.794;6.060;2023-03-04T09:45:12;14.18;;;2.63;;
26718;SDS011;14326;50.794;6.060;2023-03-04T09:47:43;14.43;;;2.88;;
26718;SDS011;14326;50.794;6.060;2023-03-04T09:50:12;14.00;;;3.22;;
26718;SDS011;14326;50.794;6.060;2023-03-04T09:52:42;16.38;;;3.10;;
26718;SDS011;14326;50.794;6.060;2023-03-04T09:55:20;19.42;;;3.22;;
26718;SDS011;14326;50.794;6.060;2023-03-04T09:57:51;20.75;;;2.80;;
26718;SDS011;14326;50.794;6.060;2023-03-04T10:00:22;16.00;;;2.65;;
26718;SDS011;14326;50.794;6.060;2023-03-04T10:03:04;10.25;;;2.58;;
26718;SDS011;14326;50.794;6.060;2023-03-04T10:05:38;13.68;;;2.95;;
26718;SDS011;14326;50.794;6.060;2023-03-04T10:08:23;17.08;;;3.60;;
26718;SDS011;14326;50.794;6.060;2023-03-04T10:10:57;15.40;;;3.00;;
26718;SDS011;14326;50.794;6.060;2023-03-04T10:13:25;16.33;;;2.53;;
26718;SDS011;14326;50.794;6.060;2023-03-04T10:16:02;14.57;;;2.47;;
26718;SDS011;14326;50.794;6.060;2023-03-04T10:18:35;14.82;;;2.40;;
26718;SDS011;14326;50.794;6.060;2023-03-04T10:21:05;11.18;;;2.53;;
26718;SDS011;14326;50.794;6.060;2023-03-04T10:23:45;10.43;;;2.40;;
26718;SDS011;14326;50.794;6.060;2023-03-04T10:26:13;13.77;;;2.58;;
26718;SDS011;14326;50.794;6.060;2023-03-04T10:28:45;14.80;;;3.85;;
26718;SDS011;14326;50.794;6.060;2023-03-04T10:31:16;13.90;;;2.70;;
26718;SDS011;14326;50.794;6.060;2023-03-04T10:33:47;10.50;;;2.50;;
26718;SDS011;14326;50.794;6.060;2023-03-04T10:36:28;12.25;;;2.72;;
26718;SDS011;14326;50.794;6.060;2023-03-04T10:39:02;9.77;;;2.47;;
26718;SDS011;14326;50.794;6.060;2023-03-04T10:41:32;10.18;;;2.40;;
26718;SDS011;14326;50.794;6.060;2023-03-04T10:44:00;10.63;;;2.20;;
26718;SDS011;14326;50.794;6.060;2023-03-04T10:46:29;11.13;;;2.20;;
26718;SDS011;14326;50.794;6.060;2023-03-04T10:48:56;10.50;;;2.35;;
26718;SDS011;14326;50.794;6.060;2023-03-04T10:51:24;11.43;;;3.08;;
26718;SDS011;14326;50.794;6.060;2023-03-04T10:53:55;14.77;;;2.35;;
26718;SDS011;14326;50.794;6.060;2023-03-04T10:56:30;11.85;;;2.00;;
26718;SDS011;14326;50.794;6.060;2023-03-04T11:02:23;13.18;;;2.22;;
26718;SDS011;14326;50.794;6.060;2023-03-04T11:07:20;15.60;;;2.60;;
26718;SDS011;14326;50.794;6.060;2023-03-04T11:09:47;10.07;;;2.25;;
26718;SDS011;14326;50.794;6.060;2023-03-04T11:12:15;12.20;;;2.28;;
26718;SDS011;14326;50.794;6.060;2023-03-04T11:14:45;15.57;;;3.10;;
26718;SDS011;14326;50.794;6.060;2023-03-04T11:17:18;10.43;;;2.05;;
26718;SDS011;14326;50.794;6.060;2023-03-04T11:20:04;15.38;;;2.50;;
26718;SDS011;14326;50.794;6.060;2023-03-04T11:22:39;11.57;;;1.85;;
26718;SDS011;14326;50.794;6.060;2023-03-04T11:25:11;8.60;;;2.58;;
26718;SDS011;14326;50.794;6.060;2023-03-04T11:27:50;9.80;;;2.17;;
26718;SDS011;14326;50.794;6.060;2023-03-04T11:30:24;14.82;;;2.97;;
26718;SDS011;14326;50.794;6.060;2023-03-04T11:33:00;10.65;;;2.58;;
26718;SDS011;14326;50.794;6.060;2023-03-04T11:35:37;10.80;;;2.33;;
26718;SDS011;14326;50.794;6.060;2023-03-04T11:38:11;6.30;;;2.03;;
26718;SDS011;14326;50.794;6.060;2023-03-04T11:40:43;10.90;;;2.55;;
26718;SDS011;14326;50.794;6.060;2023-03-04T11:43:13;8.13;;;1.92;;
26718;SDS011;14326;50.794;6.060;2023-03-04T11:45:51;9.30;;;2.45;;
26718;SDS011;14326;50.794;6.060;2023-03-04T11:48:36;10.18;;;2.00;;
26718;SDS011;14326;50.794;6.060;2023-03-04T11:51:21;11.75;;;2.28;;
26718;SDS011;14326;50.794;6.060;2023-03-04T11:53:53;10.57;;;2.17;;
26718;SDS011;14326;50.794;6.060;2023-03-04T11:56:31;11.10;;;2.03;;
26718;SDS011;14326;50.794;6.060;2023-03-04T11:59:13;7.30;;;1.55;;
26718;SDS011;14326;50.794;6.060;2023-03-04T12:01:50;6.22;;;2.13;;
26718;SDS011;14326;50.794;6.060;2023-03-04T12:04:28;8.52;;;2.00;;
26718;SDS011;14326;50.794;6.060;2023-03-04T12:07:10;8.52;;;1.58;;
26718;SDS011;14326;50.794;6.060;2023-03-04T12:13:07;3.33;;;1.58;;
26718;SDS011;14326;50.794;6.060;2023-03-04T12:16:20;7.95;;;1.70;;
26718;SDS011;14326;50.794;6.060;2023-03-04T12:19:05;3.42;;;1.52;;
26718;SDS011;14326;50.794;6.060;2023-03-04T12:22:13;5.78;;;1.80;;
26718;SDS011;14326;50.794;6.060;2023-03-04T12:25:07;13.82;;;2.10;;
26718;SDS011;14326;50.794;6.060;2023-03-04T12:27:50;11.05;;;2.13;;
26718;SDS011;14326;50.794;6.060;2023-03-04T12:30:28;10.10;;;2.10;;
26718;SDS011;14326;50.794;6.060;2023-03-04T12:33:09;9.30;;;2.08;;
26718;SDS011;14326;50.794;6.060;2023-03-04T12:35:49;16.42;;;2.45;;
26718;SDS011;14326;50.794;6.060;2023-03-04T12:38:28;5.53;;;1.48;;
26718;SDS011;14326;50.794;6.060;2023-03-04T12:41:05;11.35;;;1.67;;
26718;SDS011;14326;50.794;6.060;2023-03-04T12:43:47;13.48;;;2.30;;
26718;SDS011;14326;50.794;6.060;2023-03-04T12:46:33;10.05;;;1.80;;
26718;SDS011;14326;50.794;6.060;2023-03-04T12:49:25;12.32;;;2.15;;
26718;SDS011;14326;50.794;6.060;2023-03-04T12:54:51;7.25;;;1.77;;
26718;SDS011;14326;50.794;6.060;2023-03-04T12:57:24;7.60;;;1.95;;
26718;SDS011;14326;50.794;6.060;2023-03-04T12:59:54;9.07;;;2.00;;
26718;SDS011;14326;50.794;6.060;2023-03-04T13:05:35;4.85;;;1.27;;
26718;SDS011;14326;50.794;6.060;2023-03-04T13:08:20;6.38;;;1.70;;
26718;SDS011;14326;50.794;6.060;2023-03-04T13:10:59;12.15;;;2.30;;
26718;SDS011;14326;50.794;6.060;2023-03-04T13:13:40;6.03;;;2.28;;
26718;SDS011;14326;50.794;6.060;2023-03-04T13:16:26;9.63;;;1.90;;
26718;SDS011;14326;50.794;6.060;2023-03-04T13:18:56;9.82;;;2.35;;
26718;SDS011;14326;50.794;6.060;2023-03-04T13:21:24;10.48;;;2.53;;
26718;SDS011;14326;50.794;6.060;2023-03-04T13:23:52;8.93;;;2.30;;
26718;SDS011;14326;50.794;6.060;2023-03-04T13:26:20;9.30;;;2.22;;
26718;SDS011;14326;50.794;6.060;2023-03-04T13:28:55;5.80;;;3.03;;
26718;SDS011;14326;50.794;6.060;2023-03-04T13:34:40;10.98;;;2.25;;
26718;SDS011;14326;50.794;6.060;2023-03-04T13:45:56;7.05;;;2.20;;
26718;SDS011;14326;50.794;6.060;2023-03-04T13:48:24;14.18;;;2.95;;
26718;SDS011;14326;50.794;6.060;2023-03-04T13:50:55;7.28;;;2.03;;
26718;SDS011;14326;50.794;6.060;2023-03-04T13:53:30;7.57;;;2.17;;
26718;SDS011;14326;50.794;6.060;2023-03-04T13:56:27;5.20;;;1.98;;
26718;SDS011;14326;50.794;6.060;2023-03-04T13:59:01;17.20;;;2.47;;
26718;SDS011;14326;50.794;6.060;2023-03-04T14:04:41;9.38;;;2.30;;
26718;SDS011;14326;50.794;6.060;2023-03-04T14:07:23;10.23;;;2.20;;
26718;SDS011;14326;50.794;6.060;2023-03-04T14:09:55;12.48;;;2.08;;
26718;SDS011;14326;50.794;6.060;2023-03-04T14:12:24;9.23;;;2.20;;
26718;SDS011;14326;50.794;6.060;2023-03-04T14:14:53;9.88;;;2.63;;
26718;SDS011;14326;50.794;6.060;2023-03-04T14:17:31;7.07;;;2.28;;
26718;SDS011;14326;50.794;6.060;2023-03-04T14:20:23;11.63;;;2.47;;
26718;SDS011;14326;50.794;6.060;2023-03-04T14:22:51;6.47;;;1.92;;
26718;SDS011;14326;50.794;6.060;2023-03-04T14:25:21;11.82;;;2.35;;
26718;SDS011;14326;50.794;6.060;2023-03-04T14:27:50;11.60;;;2.85;;
26718;SDS011;14326;50.794;6.060;2023-03-04T14:30:28;8.98;;;2.08;;
26718;SDS011;14326;50.794;6.060;2023-03-04T14:32:57;15.00;;;2.67;;
26718;SDS011;14326;50.794;6.060;2023-03-04T14:35:27;9.18;;;2.20;;
26718;SDS011;14326;50.794;6.060;2023-03-04T14:37:58;9.48;;;2.67;;
26718;SDS011;14326;50.794;6.060;2023-03-04T14:40:27;10.10;;;2.65;;
26718;SDS011;14326;50.794;6.060;2023-03-04T14:42:58;10.95;;;2.92;;
26718;SDS011;14326;50.794;6.060;2023-03-04T14:45:29;11.02;;;2.40;;
26718;SDS011;14326;50.794;6.060;2023-03-04T14:54:01;13.60;;;2.47;;
26718;SDS011;14326;50.794;6.060;2023-03-04T14:56:28;13.75;;;2.47;;
26718;SDS011;14326;50.794;6.060;2023-03-04T14:58:56;8.48;;;2.40;;
26718;SDS011;14326;50.794;6.060;2023-03-04T15:01:27;5.13;;;1.98;;
26718;SDS011;14326;50.794;6.060;2023-03-04T15:03:56;10.85;;;2.80;;
26718;SDS011;14326;50.794;6.060;2023-03-04T15:06:27;9.27;;;3.00;;
26718;SDS011;14326;50.794;6.060;2023-03-04T15:08:58;10.70;;;2.88;;
26718;SDS011;14326;50.794;6.060;2023-03-04T15:13:55;8.90;;;2.95;;
26718;SDS011;14326;50.794;6.060;2023-03-04T15:16:23;15.10;;;3.45;;
26718;SDS011;14326;50.794;6.060;2023-03-04T15:18:58;15.13;;;3.83;;
26718;SDS011;14326;50.794;6.060;2023-03-04T15:21:28;13.98;;;3.67;;
26718;SDS011;14326;50.794;6.060;2023-03-04T15:23:59;16.48;;;5.00;;
26718;SDS011;14326;50.794;6.060;2023-03-04T15:26:27;16.92;;;4.00;;
26718;SDS011;14326;50.794;6.060;2023-03-04T15:28:54;13.18;;;3.85;;
26718;SDS011;14326;50.794;6.060;2023-03-04T15:31:21;14.93;;;4.32;;
26718;SDS011;14326;50.794;6.060;2023-03-04T15:33:51;10.88;;;3.67;;
26718;SDS011;14326;50.794;6.060;2023-03-04T15:36:18;13.50;;;4.25;;
26718;SDS011;14326;50.794;6.060;2023-03-04T15:38:47;12.65;;;4.32;;
26718;SDS011;14326;50.794;6.060;2023-03-04T15:41:19;17.43;;;4.90;;
26718;SDS011;14326;50.794;6.060;2023-03-04T15:43:57;16.27;;;4.82;;
26718;SDS011;14326;50.794;6.060;2023-03-04T15:49:05;19.48;;;6.10;;
26718;SDS011;14326;50.794;6.060;2023-03-04T15:51:31;19.95;;;6.00;;
26718;SDS011;14326;50.794;6.060;2023-03-04T15:53:58;21.45;;;6.28;;
26718;SDS011;14326;50.794;6.060;2023-03-04T15:56:27;18.75;;;6.35;;